createdAt,value
2023-05-11T00:00:41.755Z,18.83
2023-05-11T00:03:07.604Z,19.65
2023-05-11T00:05:33.619Z,22.10
2023-05-11T00:07:59.514Z,20.85
2023-05-11T00:10:27.851Z,20.00
2023-05-11T00:12:53.596Z,21.30
2023-05-11T00:15:19.488Z,21.08
2023-05-11T00:17:45.703Z,20.42
2023-05-11T00:20:11.683Z,19.20
2023-05-11T00:22:38.381Z,20.73
2023-05-11T00:25:04.930Z,21.83
2023-05-11T00:27:30.743Z,20.98
2023-05-11T00:29:56.506Z,19.30
2023-05-11T00:32:22.316Z,20.92
2023-05-11T00:34:48.117Z,21.15
2023-05-11T00:37:13.932Z,22.17
2023-05-11T00:39:40.057Z,20.48
2023-05-11T00:42:06.631Z,20.25
2023-05-11T00:44:32.608Z,20.17
2023-05-11T00:46:58.700Z,21.33
2023-05-11T00:49:24.665Z,20.45
2023-05-11T00:51:51.098Z,20.58
2023-05-11T00:54:17.608Z,19.98
2023-05-11T00:56:43.508Z,20.10
2023-05-11T00:59:09.348Z,19.92
2023-05-11T01:01:38.016Z,20.40
2023-05-11T01:04:04.273Z,20.15
2023-05-11T01:07:00.453Z,19.67
2023-05-11T01:10:04.700Z,21.40
2023-05-11T01:12:48.990Z,21.13
2023-05-11T01:15:36.129Z,22.52
2023-05-11T01:18:20.730Z,20.42
2023-05-11T01:20:49.476Z,20.58
2023-05-11T01:23:35.516Z,19.58
2023-05-11T01:26:49.305Z,20.67
2023-05-11T01:29:49.294Z,20.33
2023-05-11T01:32:20.271Z,20.77
2023-05-11T01:34:47.776Z,19.92
2023-05-11T01:37:20.589Z,20.83
2023-05-11T01:39:52.397Z,19.58
2023-05-11T01:42:24.237Z,18.42
2023-05-11T01:44:54.295Z,19.83
2023-05-11T01:47:23.048Z,19.60
2023-05-11T01:49:50.946Z,21.10
2023-05-11T01:52:20.121Z,20.48
2023-05-11T01:54:48.176Z,20.00
2023-05-11T01:57:15.517Z,21.05
2023-05-11T01:59:41.953Z,22.13
2023-05-11T02:02:09.207Z,22.60
2023-05-11T02:04:38.006Z,21.60
2023-05-11T02:07:05.375Z,22.23
2023-05-11T02:09:33.147Z,22.65
2023-05-11T02:12:00.525Z,24.00
2023-05-11T02:14:28.693Z,24.95
2023-05-11T02:16:56.651Z,24.05
2023-05-11T02:19:22.576Z,24.40
2023-05-11T02:21:51.773Z,24.40
2023-05-11T02:24:19.894Z,24.20
2023-05-11T02:26:46.391Z,25.30
2023-05-11T02:29:12.261Z,25.27
2023-05-11T02:31:43.199Z,25.55
2023-05-11T02:34:32.665Z,24.80
2023-05-11T02:37:00.537Z,23.15
2023-05-11T02:39:35.871Z,25.27
2023-05-11T02:42:20.035Z,23.27
2023-05-11T02:45:00.321Z,25.13
2023-05-11T02:47:36.019Z,24.92
2023-05-11T02:50:04.185Z,24.95
2023-05-11T02:52:32.119Z,23.83
2023-05-11T02:55:00.817Z,26.10
2023-05-11T02:57:27.032Z,26.75
2023-05-11T02:59:53.137Z,25.90
2023-05-11T03:02:19.160Z,26.15
2023-05-11T03:04:45.247Z,27.85
2023-05-11T03:07:11.372Z,27.17
2023-05-11T03:09:37.399Z,27.33
2023-05-11T03:12:03.884Z,28.45
2023-05-11T03:14:34.062Z,29.85
2023-05-11T03:17:00.979Z,30.10
2023-05-11T03:19:28.106Z,30.33
2023-05-11T03:21:57.039Z,30.42
2023-05-11T03:24:24.849Z,29.80
2023-05-11T03:26:54.322Z,30.63
2023-05-11T03:29:22.059Z,28.45
2023-05-11T03:31:50.463Z,31.30
2023-05-11T03:34:17.222Z,31.13
2023-05-11T03:36:46.219Z,33.63
2023-05-11T03:39:14.331Z,32.33
2023-05-11T03:41:40.906Z,33.05
2023-05-11T03:44:10.147Z,32.45
2023-05-11T03:46:39.265Z,33.33
2023-05-11T03:49:06.375Z,32.28
2023-05-11T03:51:34.399Z,31.65
2023-05-11T03:54:00.350Z,30.63
2023-05-11T03:56:26.528Z,30.30
2023-05-11T03:58:53.411Z,25.70
2023-05-11T04:01:20.046Z,29.58
2023-05-11T04:03:50.787Z,29.13
2023-05-11T04:06:17.779Z,25.35
2023-05-11T04:08:43.706Z,27.23
2023-05-11T04:11:09.716Z,26.33
2023-05-11T04:13:35.895Z,26.63
2023-05-11T04:16:01.755Z,27.70
2023-05-11T04:18:28.597Z,29.67
2023-05-11T04:20:55.146Z,28.00
2023-05-11T04:23:22.824Z,27.52
2023-05-11T04:25:55.405Z,30.90
2023-05-11T04:28:24.309Z,28.70
2023-05-11T04:30:54.573Z,29.83
2023-05-11T04:33:20.778Z,30.95
2023-05-11T04:35:48.592Z,29.17
2023-05-11T04:38:14.530Z,29.92
2023-05-11T04:40:40.370Z,29.77
2023-05-11T04:43:06.159Z,28.55
2023-05-11T04:45:31.959Z,30.40
2023-05-11T04:47:57.877Z,30.13
2023-05-11T04:50:23.782Z,31.08
2023-05-11T04:52:49.795Z,32.83
2023-05-11T04:55:16.221Z,33.92
2023-05-11T04:57:42.035Z,32.47
2023-05-11T05:00:08.750Z,33.15
2023-05-11T05:02:34.974Z,33.95
2023-05-11T05:05:00.954Z,32.40
2023-05-11T05:07:26.811Z,32.58
2023-05-11T05:09:52.646Z,31.98
2023-05-11T05:12:18.523Z,33.60
2023-05-11T05:14:44.291Z,32.70
2023-05-11T05:17:10.356Z,33.20
2023-05-11T05:19:36.689Z,35.35
2023-05-11T05:22:02.755Z,34.13
2023-05-11T05:24:28.564Z,35.13
2023-05-11T05:26:54.389Z,33.33
2023-05-11T05:29:20.217Z,32.45
2023-05-11T05:31:46.210Z,30.48
2023-05-11T05:34:14.008Z,29.77
2023-05-11T05:36:41.900Z,29.52
2023-05-11T05:39:11.928Z,30.38
2023-05-11T05:41:37.903Z,30.05
2023-05-11T05:44:03.818Z,28.67
2023-05-11T05:46:29.704Z,29.67
2023-05-11T05:48:56.177Z,30.80
2023-05-11T05:51:22.023Z,32.30
2023-05-11T05:53:47.812Z,31.00
2023-05-11T05:56:13.584Z,31.45
2023-05-11T05:58:39.596Z,29.10
2023-05-11T06:01:05.413Z,29.92
2023-05-11T06:03:31.414Z,28.95
2023-05-11T06:06:00.453Z,27.38
2023-05-11T06:08:26.261Z,27.55
2023-05-11T06:10:52.040Z,26.70
2023-05-11T06:13:17.878Z,23.85
2023-05-11T06:15:44.035Z,23.95
2023-05-11T06:18:10.174Z,24.85
2023-05-11T06:20:38.398Z,22.38
2023-05-11T06:23:04.299Z,22.38
2023-05-11T06:25:33.612Z,23.00
2023-05-11T06:27:59.516Z,21.85
2023-05-11T06:30:25.416Z,22.48
2023-05-11T06:32:51.608Z,23.88
2023-05-11T06:35:17.549Z,21.13
2023-05-11T06:37:43.533Z,22.10
2023-05-11T06:40:09.658Z,20.58
2023-05-11T06:42:35.648Z,20.65
2023-05-11T06:45:01.612Z,16.90
2023-05-11T06:47:27.568Z,15.82
2023-05-11T06:49:53.710Z,15.70
2023-05-11T06:52:19.587Z,13.90
2023-05-11T06:54:45.373Z,14.27
2023-05-11T06:57:12.727Z,14.10
2023-05-11T06:59:40.196Z,11.95
2023-05-11T07:02:06.091Z,12.38
2023-05-11T07:04:31.970Z,12.80
2023-05-11T07:06:57.881Z,12.88
2023-05-11T07:09:24.172Z,12.45
2023-05-11T07:11:51.449Z,12.48
2023-05-11T07:14:17.579Z,12.68
2023-05-11T07:16:43.563Z,13.50
2023-05-11T07:19:09.640Z,15.00
2023-05-11T07:21:35.992Z,14.65
2023-05-11T07:24:02.491Z,14.63
2023-05-11T07:26:28.381Z,13.90
2023-05-11T07:28:54.464Z,14.00
2023-05-11T07:31:20.602Z,14.93
2023-05-11T07:33:46.687Z,13.65
2023-05-11T07:36:12.710Z,14.65
2023-05-11T07:38:38.903Z,14.70
2023-05-11T07:41:06.672Z,14.43
2023-05-11T07:43:33.083Z,15.32
2023-05-11T07:45:58.951Z,14.60
2023-05-11T07:48:24.834Z,14.75
2023-05-11T07:50:50.930Z,14.80
2023-05-11T07:53:16.790Z,14.95
2023-05-11T07:55:42.608Z,16.08
2023-05-11T07:58:08.503Z,15.20
2023-05-11T08:00:34.640Z,15.20
2023-05-11T08:03:01.516Z,15.63
2023-05-11T08:05:27.682Z,16.15
2023-05-11T08:07:53.760Z,15.88
2023-05-11T08:10:19.597Z,15.23
2023-05-11T08:12:45.549Z,15.40
2023-05-11T08:15:11.445Z,14.77
2023-05-11T08:17:37.386Z,14.40
2023-05-11T08:20:05.848Z,16.08
2023-05-11T08:22:31.793Z,16.05
2023-05-11T08:24:58.163Z,14.90
2023-05-11T08:27:24.095Z,14.80
2023-05-11T08:29:50.283Z,14.85
2023-05-11T08:32:16.240Z,13.88
2023-05-11T08:34:42.248Z,13.25
2023-05-11T08:37:08.107Z,11.55
2023-05-11T08:42:06.392Z,11.43
2023-05-11T08:44:34.269Z,10.57
2023-05-11T08:47:18.892Z,10.98
2023-05-11T08:49:47.682Z,9.60
2023-05-11T08:52:15.623Z,9.02
2023-05-11T08:54:41.477Z,8.93
2023-05-11T08:57:09.423Z,10.25
2023-05-11T08:59:35.735Z,10.70
2023-05-11T09:02:03.812Z,9.52
2023-05-11T09:04:30.775Z,10.07
2023-05-11T09:06:57.722Z,9.45
2023-05-11T09:09:23.611Z,10.93
2023-05-11T09:11:49.888Z,9.57
2023-05-11T09:14:15.774Z,10.07
2023-05-11T09:16:41.784Z,11.00
2023-05-11T09:19:15.377Z,9.95
2023-05-11T09:21:41.583Z,8.65
2023-05-11T09:24:11.109Z,8.52
2023-05-11T09:26:37.009Z,8.40
2023-05-11T09:29:04.133Z,8.48
2023-05-11T09:31:41.812Z,8.02
2023-05-11T09:34:28.046Z,8.13
2023-05-11T09:36:56.207Z,8.88
2023-05-11T09:39:41.760Z,7.80
2023-05-11T09:42:21.501Z,8.50
2023-05-11T09:44:48.098Z,8.85
2023-05-11T09:47:18.662Z,8.57
2023-05-11T09:49:46.017Z,8.50
2023-05-11T09:52:13.328Z,8.75
2023-05-11T09:54:44.077Z,7.78
2023-05-11T09:57:24.578Z,7.68
2023-05-11T09:59:50.808Z,7.90
2023-05-11T10:02:31.225Z,7.75
2023-05-11T10:05:00.152Z,7.90
2023-05-11T10:07:35.839Z,7.32
2023-05-11T10:10:06.857Z,7.18
2023-05-11T10:12:33.619Z,7.70
2023-05-11T10:15:05.023Z,7.90
2023-05-11T10:17:31.311Z,8.25
2023-05-11T10:19:58.070Z,7.97
2023-05-11T10:22:24.911Z,7.85
2023-05-11T10:24:51.402Z,7.75
2023-05-11T10:27:20.838Z,7.78
2023-05-11T10:29:47.723Z,8.20
2023-05-11T10:32:15.734Z,8.25
2023-05-11T10:34:42.943Z,7.45
2023-05-11T10:37:08.888Z,7.68
2023-05-11T10:39:39.480Z,8.27
2023-05-11T10:42:32.920Z,8.70
2023-05-11T10:45:23.931Z,7.38
2023-05-11T10:47:52.730Z,7.40
2023-05-11T10:50:45.277Z,7.28
2023-05-11T10:53:26.278Z,7.32
2023-05-11T10:56:36.620Z,7.00
2023-05-11T10:59:11.468Z,7.05
2023-05-11T11:01:39.079Z,6.38
2023-05-11T11:04:07.989Z,5.78
2023-05-11T11:06:36.386Z,5.28
2023-05-11T11:09:05.407Z,6.55
2023-05-11T11:11:40.018Z,5.72
2023-05-11T11:14:08.768Z,6.35
2023-05-11T11:16:36.220Z,6.07
2023-05-11T11:19:45.348Z,6.15
2023-05-11T11:22:37.466Z,6.07
2023-05-11T11:25:14.257Z,6.00
2023-05-11T11:27:40.100Z,6.63
2023-05-11T11:30:30.009Z,6.43
2023-05-11T11:33:15.859Z,6.65
2023-05-11T11:35:42.002Z,7.03
2023-05-11T11:38:29.322Z,6.57
2023-05-11T11:40:55.611Z,6.57
2023-05-11T11:43:26.863Z,6.95
2023-05-11T11:46:02.461Z,6.82
2023-05-11T11:48:30.057Z,7.72
2023-05-11T11:51:13.794Z,7.82
2023-05-11T11:53:43.809Z,8.15
2023-05-11T11:56:15.517Z,7.68
2023-05-11T11:58:41.814Z,7.57
2023-05-11T12:01:09.363Z,8.07
2023-05-11T12:03:36.362Z,7.97
2023-05-11T12:06:05.885Z,7.55
2023-05-11T12:08:42.697Z,7.35
2023-05-11T12:11:08.843Z,7.10
2023-05-11T12:13:35.235Z,7.20
2023-05-11T12:16:18.131Z,7.35
2023-05-11T12:19:01.520Z,7.13
2023-05-11T12:21:30.965Z,6.10
2023-05-11T12:24:06.431Z,7.22
2023-05-11T12:26:33.763Z,6.32
2023-05-11T12:29:10.511Z,5.97
2023-05-11T12:31:38.120Z,6.85
2023-05-11T12:34:04.158Z,6.05
2023-05-11T12:36:29.993Z,6.78
2023-05-11T12:38:56.018Z,7.13
2023-05-11T12:41:22.998Z,6.65
2023-05-11T12:43:50.068Z,6.72
2023-05-11T12:46:17.812Z,6.60
2023-05-11T12:48:48.382Z,7.28
2023-05-11T12:51:42.827Z,6.93
2023-05-11T12:54:09.459Z,7.35
2023-05-11T12:57:05.394Z,7.07
2023-05-11T12:59:39.727Z,8.73
2023-05-11T13:02:20.978Z,8.75
2023-05-11T13:04:47.510Z,8.95
2023-05-11T13:07:23.182Z,9.23
2023-05-11T13:10:00.213Z,9.27
2023-05-11T13:12:27.653Z,9.52
2023-05-11T13:15:07.777Z,9.85
2023-05-11T13:17:36.302Z,10.95
2023-05-11T13:20:25.721Z,10.32
2023-05-11T13:25:27.560Z,11.90
2023-05-11T13:27:55.198Z,11.32
2023-05-11T13:30:21.388Z,11.75
2023-05-11T13:32:47.275Z,12.85
2023-05-11T13:35:13.149Z,13.32
2023-05-11T13:37:38.989Z,12.68
2023-05-11T13:40:09.671Z,12.88
2023-05-11T13:42:36.249Z,13.48
2023-05-11T13:45:02.364Z,14.32
2023-05-11T13:47:28.312Z,15.18
2023-05-11T13:49:54.371Z,15.55
2023-05-11T13:52:21.571Z,15.45
2023-05-11T13:54:48.154Z,15.40
2023-05-11T13:57:14.207Z,15.77
2023-05-11T13:59:40.173Z,15.80
2023-05-11T14:02:06.746Z,15.05
2023-05-11T14:04:33.058Z,15.32
2023-05-11T14:06:59.007Z,16.48
2023-05-11T14:09:25.483Z,14.38
2023-05-11T14:11:51.411Z,15.48
2023-05-11T14:14:17.422Z,15.90
2023-05-11T14:16:43.591Z,16.48
2023-05-11T14:19:09.640Z,17.63
2023-05-11T14:21:35.948Z,16.98
2023-05-11T14:24:11.444Z,17.02
2023-05-11T14:26:37.974Z,16.92
2023-05-11T14:29:03.893Z,18.15
2023-05-11T14:31:30.640Z,16.92
2023-05-11T14:33:56.847Z,17.52
2023-05-11T14:36:22.890Z,17.08
2023-05-11T14:38:48.760Z,18.73
2023-05-11T14:41:15.023Z,16.85
2023-05-11T14:43:40.956Z,17.02
2023-05-11T14:46:06.840Z,18.65
2023-05-11T14:48:32.919Z,19.25
2023-05-11T14:50:58.745Z,18.13
2023-05-11T14:53:24.547Z,20.05
2023-05-11T14:55:50.479Z,18.85
2023-05-11T14:58:16.440Z,20.38
2023-05-11T15:00:43.151Z,18.60
2023-05-11T15:03:10.118Z,17.30
2023-05-11T15:05:37.308Z,15.63
2023-05-11T15:08:03.292Z,15.70
2023-05-11T15:10:29.185Z,14.43
2023-05-11T15:12:55.145Z,15.23
2023-05-11T15:15:21.200Z,13.52
2023-05-11T15:17:47.162Z,13.98
2023-05-11T15:20:13.117Z,13.75
2023-05-11T15:22:39.098Z,11.55
2023-05-11T15:25:05.382Z,12.00
2023-05-11T15:27:32.048Z,12.40
2023-05-11T15:29:58.012Z,12.48
2023-05-11T15:32:24.002Z,12.15
2023-05-11T15:34:59.328Z,12.35
2023-05-11T15:37:26.126Z,9.73
2023-05-11T15:39:52.001Z,10.43
2023-05-11T15:42:17.921Z,11.25
2023-05-11T15:44:44.009Z,11.98
2023-05-11T15:47:09.880Z,15.93
2023-05-11T15:49:35.706Z,12.85
2023-05-11T15:52:01.994Z,14.45
2023-05-11T15:54:28.500Z,13.07
2023-05-11T15:56:54.574Z,15.30
2023-05-11T15:59:20.654Z,15.52
2023-05-11T16:01:46.704Z,13.43
2023-05-11T16:04:12.767Z,12.20
2023-05-11T16:06:39.501Z,12.00
2023-05-11T16:09:05.507Z,13.80
2023-05-11T16:11:31.412Z,12.60
2023-05-11T16:13:57.648Z,12.48
2023-05-11T16:16:24.182Z,12.95
2023-05-11T16:18:50.706Z,12.13
2023-05-11T16:21:16.629Z,12.45
2023-05-11T16:23:42.516Z,14.02
2023-05-11T16:26:09.167Z,13.60
2023-05-11T16:28:35.090Z,12.95
2023-05-11T16:31:00.913Z,8.90
2023-05-11T16:33:26.866Z,9.05
2023-05-11T16:35:52.707Z,8.18
2023-05-11T16:38:20.555Z,6.72
2023-05-11T16:40:47.845Z,7.10
2023-05-11T16:43:13.670Z,7.20
2023-05-11T16:45:41.509Z,6.70
2023-05-11T16:48:12.411Z,6.43
2023-05-11T16:50:38.362Z,6.80
2023-05-11T16:53:04.559Z,7.68
2023-05-11T16:55:30.505Z,7.82
2023-05-11T16:57:56.611Z,7.80
2023-05-11T17:00:22.733Z,8.40
2023-05-11T17:02:49.012Z,7.25
2023-05-11T17:05:17.227Z,6.43
2023-05-11T17:07:45.543Z,7.38
2023-05-11T17:10:12.148Z,8.63
2023-05-11T17:12:38.206Z,10.32
2023-05-11T17:15:08.951Z,9.50
2023-05-11T17:17:38.514Z,7.82
2023-05-11T17:20:07.830Z,7.97
2023-05-11T17:22:34.519Z,7.80
2023-05-11T17:25:03.663Z,8.60
2023-05-11T17:27:34.540Z,8.40
2023-05-11T17:30:00.457Z,10.15
2023-05-11T17:32:26.500Z,10.20
2023-05-11T17:34:52.631Z,10.25
2023-05-11T17:37:28.205Z,9.60
2023-05-11T17:39:57.640Z,9.55
2023-05-11T17:42:23.503Z,10.13
2023-05-11T17:44:49.471Z,10.20
2023-05-11T17:47:15.419Z,8.45
2023-05-11T17:49:41.318Z,8.43
2023-05-11T17:52:10.335Z,8.60
2023-05-11T17:54:36.499Z,8.68
2023-05-11T17:57:04.375Z,8.85
2023-05-11T17:59:30.366Z,8.55
2023-05-11T18:01:56.438Z,8.60
2023-05-11T18:04:22.518Z,8.73
2023-05-11T18:06:48.756Z,9.20
2023-05-11T18:09:14.600Z,9.75
2023-05-11T18:11:41.725Z,9.02
2023-05-11T18:14:08.617Z,9.80
2023-05-11T18:16:34.603Z,10.07
2023-05-11T18:19:00.674Z,9.00
2023-05-11T18:21:26.979Z,9.20
2023-05-11T18:23:53.408Z,9.10
2023-05-11T18:26:21.156Z,9.70
2023-05-11T18:28:49.778Z,9.27
2023-05-11T18:31:18.281Z,10.25
2023-05-11T18:33:46.842Z,9.40
2023-05-11T18:36:15.196Z,8.90
2023-05-11T18:38:42.804Z,9.02
2023-05-11T18:41:08.984Z,8.05
2023-05-11T18:43:35.450Z,7.82
2023-05-11T18:46:06.493Z,7.85
2023-05-11T18:48:33.027Z,7.65
2023-05-11T18:50:58.896Z,7.57
2023-05-11T18:53:25.920Z,7.18
2023-05-11T18:55:55.296Z,7.50
2023-05-11T18:58:21.542Z,7.05
2023-05-11T19:00:48.074Z,7.90
2023-05-11T19:03:14.518Z,8.52
2023-05-11T19:05:43.084Z,6.68
2023-05-11T19:08:09.348Z,7.47
2023-05-11T19:10:38.068Z,6.63
2023-05-11T19:13:04.699Z,7.80
2023-05-11T19:15:31.260Z,8.45
2023-05-11T19:17:57.180Z,8.38
2023-05-11T19:20:23.170Z,11.15
2023-05-11T19:22:49.083Z,10.30
2023-05-11T19:25:15.434Z,8.82
2023-05-11T19:27:41.364Z,8.63
2023-05-11T19:30:08.787Z,8.85
2023-05-11T19:32:35.699Z,8.30
2023-05-11T19:35:01.651Z,8.18
2023-05-11T19:37:28.146Z,9.40
2023-05-11T19:39:55.404Z,10.25
2023-05-11T19:42:38.347Z,10.25
2023-05-11T19:45:06.304Z,9.00
2023-05-11T19:47:32.836Z,10.80
2023-05-11T19:49:58.985Z,9.57
2023-05-11T19:52:24.865Z,10.27
2023-05-11T19:54:51.202Z,10.98
2023-05-11T19:57:17.815Z,10.48
2023-05-11T19:59:44.110Z,9.15
2023-05-11T20:02:09.966Z,9.45
2023-05-11T20:04:36.147Z,9.23
2023-05-11T20:07:02.831Z,10.07
2023-05-11T20:09:31.846Z,9.90
2023-05-11T20:11:58.088Z,9.27
2023-05-11T20:14:26.583Z,9.88
2023-05-11T20:16:53.205Z,9.68
2023-05-11T20:19:19.865Z,9.45
2023-05-11T20:21:48.914Z,8.93
2023-05-11T20:24:15.184Z,7.90
2023-05-11T20:26:41.535Z,7.28
2023-05-11T20:29:10.479Z,7.25
2023-05-11T20:31:37.318Z,7.07
2023-05-11T20:36:32.651Z,6.43
2023-05-11T20:38:58.642Z,6.57
2023-05-11T20:41:24.617Z,6.38
2023-05-11T20:43:51.902Z,6.50
2023-05-11T20:46:17.859Z,6.78
2023-05-11T20:48:46.852Z,7.20
2023-05-11T20:51:15.497Z,8.23
2023-05-11T20:53:41.423Z,8.27
2023-05-11T20:56:09.325Z,8.45
2023-05-11T20:58:35.505Z,8.30
2023-05-11T21:01:01.426Z,8.20
2023-05-11T21:03:27.388Z,7.90
2023-05-11T21:05:53.240Z,8.55
2023-05-11T21:08:19.106Z,8.00
2023-05-11T21:10:44.912Z,8.95
2023-05-11T21:13:12.384Z,9.18
2023-05-11T21:15:38.421Z,9.02
2023-05-11T21:18:04.540Z,9.27
2023-05-11T21:20:30.495Z,9.38
2023-05-11T21:22:56.380Z,8.40
2023-05-11T21:25:22.220Z,8.05
2023-05-11T21:27:48.148Z,8.60
2023-05-11T21:30:14.004Z,8.48
2023-05-11T21:32:39.935Z,9.05
2023-05-11T21:35:06.412Z,8.90
2023-05-11T21:37:34.700Z,8.52
2023-05-11T21:40:00.813Z,9.57
2023-05-11T21:42:26.831Z,9.57
2023-05-11T21:44:52.717Z,7.55
2023-05-11T21:47:18.596Z,9.15
2023-05-11T21:49:44.428Z,8.30
2023-05-11T21:52:10.500Z,7.78
2023-05-11T21:54:36.375Z,7.60
2023-05-11T21:57:03.130Z,8.85
2023-05-11T21:59:28.968Z,8.57
2023-05-11T22:01:56.476Z,7.75
2023-05-11T22:04:22.960Z,7.45
2023-05-11T22:06:48.770Z,8.25
2023-05-11T22:09:14.957Z,8.68
2023-05-11T22:11:40.827Z,8.45
2023-05-11T22:14:06.776Z,8.05
2023-05-11T22:16:32.677Z,7.63
2023-05-11T22:18:58.607Z,7.50
2023-05-11T22:21:27.155Z,6.85
2023-05-11T22:23:53.155Z,6.32
2023-05-11T22:26:18.957Z,6.45
2023-05-11T22:28:44.889Z,6.32
2023-05-11T22:31:10.826Z,5.88
2023-05-11T22:33:36.753Z,5.28
2023-05-11T22:36:03.053Z,5.70
2023-05-11T22:38:29.626Z,4.80
2023-05-11T22:40:55.558Z,4.18
2023-05-11T22:43:21.374Z,4.63
2023-05-11T22:45:47.626Z,3.67
2023-05-11T22:48:13.521Z,3.25
2023-05-11T22:50:45.827Z,2.60
2023-05-11T22:53:11.684Z,2.45
2023-05-11T22:55:37.670Z,2.40
2023-05-11T22:58:03.469Z,2.80
2023-05-11T23:00:29.366Z,3.25
2023-05-11T23:02:55.313Z,3.45
2023-05-11T23:05:21.203Z,3.47
2023-05-11T23:07:47.157Z,4.93
2023-05-11T23:10:13.126Z,4.03
2023-05-11T23:12:39.004Z,4.75
2023-05-11T23:15:05.653Z,5.57
2023-05-11T23:17:31.638Z,5.22
2023-05-11T23:19:57.680Z,4.13
2023-05-11T23:22:23.980Z,4.18
2023-05-11T23:24:49.725Z,3.15
2023-05-11T23:27:16.438Z,2.65
2023-05-11T23:29:42.487Z,2.95
2023-05-11T23:32:08.596Z,2.90
2023-05-11T23:34:34.400Z,3.13
2023-05-11T23:37:00.434Z,3.13
2023-05-11T23:39:26.389Z,3.58
2023-05-11T23:41:52.355Z,2.40
2023-05-11T23:44:18.178Z,2.40
2023-05-11T23:46:44.064Z,2.30
2023-05-11T23:49:09.933Z,1.90
2023-05-11T23:51:35.804Z,1.55
2023-05-11T23:54:01.857Z,1.77
2023-05-11T23:56:27.685Z,1.00
2023-05-11T23:58:53.658Z,1.10
